sensor_id;sensor_type;location;lat;lon;timestamp;P1;durP1;ratioP1;P2;durP2;ratioP2
40150;SDS011;25866;52.420;10.640;2022-07-23T00:00:14;4.97;;;3.28;;
40150;SDS011;25866;52.420;10.640;2022-07-23T00:02:40;4.97;;;3.13;;
40150;SDS011;25866;52.420;10.640;2022-07-23T00:05:06;5.15;;;3.20;;
40150;SDS011;25866;52.420;10.640;2022-07-23T00:07:32;7.10;;;3.30;;
40150;SDS011;25866;52.420;10.640;2022-07-23T00:09:58;4.55;;;2.90;;
40150;SDS011;25866;52.420;10.640;2022-07-23T00:12:26;3.85;;;2.90;;
40150;SDS011;25866;52.420;10.640;2022-07-23T00:14:52;3.28;;;2.83;;
40150;SDS011;25866;52.420;10.640;2022-07-23T00:17:17;5.22;;;3.10;;
40150;SDS011;25866;52.420;10.640;2022-07-23T00:19:43;5.35;;;3.50;;
40150;SDS011;25866;52.420;10.640;2022-07-23T00:22:26;4.82;;;3.40;;
40150;SDS011;25866;52.420;10.640;2022-07-23T00:24:54;5.47;;;2.83;;
40150;SDS011;25866;52.420;10.640;2022-07-23T00:27:20;4.13;;;3.17;;
40150;SDS011;25866;52.420;10.640;2022-07-23T00:29:46;5.68;;;3.35;;
40150;SDS011;25866;52.420;10.640;2022-07-23T00:35:16;4.13;;;3.17;;
40150;SDS011;25866;52.420;10.640;2022-07-23T00:37:45;4.57;;;3.20;;
40150;SDS011;25866;52.420;10.640;2022-07-23T00:40:11;4.63;;;2.90;;
40150;SDS011;25866;52.420;10.640;2022-07-23T00:42:37;5.55;;;3.08;;
40150;SDS011;25866;52.420;10.640;2022-07-23T00:45:03;5.07;;;3.33;;
40150;SDS011;25866;52.420;10.640;2022-07-23T00:47:29;5.93;;;3.45;;
40150;SDS011;25866;52.420;10.640;2022-07-23T00:49:55;3.33;;;3.03;;
40150;SDS011;25866;52.420;10.640;2022-07-23T00:55:13;6.03;;;3.40;;
40150;SDS011;25866;52.420;10.640;2022-07-23T00:57:39;5.53;;;3.00;;
40150;SDS011;25866;52.420;10.640;2022-07-23T01:00:06;3.75;;;3.35;;
40150;SDS011;25866;52.420;10.640;2022-07-23T01:02:36;4.95;;;3.88;;
40150;SDS011;25866;52.420;10.640;2022-07-23T01:05:02;6.30;;;3.60;;
40150;SDS011;25866;52.420;10.640;2022-07-23T01:07:28;4.68;;;3.33;;
40150;SDS011;25866;52.420;10.640;2022-07-23T01:09:54;4.53;;;3.25;;
40150;SDS011;25866;52.420;10.640;2022-07-23T01:12:22;5.05;;;3.45;;
40150;SDS011;25866;52.420;10.640;2022-07-23T01:14:55;5.32;;;3.83;;
40150;SDS011;25866;52.420;10.640;2022-07-23T01:17:24;6.63;;;3.72;;
40150;SDS011;25866;52.420;10.640;2022-07-23T01:19:50;4.88;;;3.67;;
40150;SDS011;25866;52.420;10.640;2022-07-23T01:22:17;5.60;;;3.72;;
40150;SDS011;25866;52.420;10.640;2022-07-23T01:24:44;9.73;;;4.07;;
40150;SDS011;25866;52.420;10.640;2022-07-23T01:27:10;6.57;;;3.85;;
40150;SDS011;25866;52.420;10.640;2022-07-23T01:29:37;10.07;;;3.85;;
40150;SDS011;25866;52.420;10.640;2022-07-23T01:32:22;5.85;;;3.83;;
40150;SDS011;25866;52.420;10.640;2022-07-23T01:34:47;5.13;;;3.70;;
40150;SDS011;25866;52.420;10.640;2022-07-23T01:37:13;7.15;;;4.50;;
40150;SDS011;25866;52.420;10.640;2022-07-23T01:39:39;21.90;;;5.20;;
40150;SDS011;25866;52.420;10.640;2022-07-23T01:42:11;6.40;;;3.80;;
40150;SDS011;25866;52.420;10.640;2022-07-23T01:44:37;7.35;;;4.50;;
40150;SDS011;25866;52.420;10.640;2022-07-23T01:47:03;5.05;;;3.88;;
40150;SDS011;25866;52.420;10.640;2022-07-23T01:49:28;7.15;;;4.30;;
40150;SDS011;25866;52.420;10.640;2022-07-23T01:51:54;6.25;;;4.53;;
40150;SDS011;25866;52.420;10.640;2022-07-23T01:54:33;6.35;;;4.50;;
40150;SDS011;25866;52.420;10.640;2022-07-23T01:57:00;5.28;;;4.18;;
40150;SDS011;25866;52.420;10.640;2022-07-23T01:59:26;6.28;;;4.10;;
40150;SDS011;25866;52.420;10.640;2022-07-23T02:01:53;5.07;;;4.10;;
40150;SDS011;25866;52.420;10.640;2022-07-23T02:04:23;5.00;;;3.80;;
40150;SDS011;25866;52.420;10.640;2022-07-23T02:06:50;5.15;;;4.22;;
40150;SDS011;25866;52.420;10.640;2022-07-23T02:09:16;6.50;;;4.43;;
40150;SDS011;25866;52.420;10.640;2022-07-23T02:11:42;6.50;;;4.75;;
40150;SDS011;25866;52.420;10.640;2022-07-23T02:14:07;6.10;;;4.25;;
40150;SDS011;25866;52.420;10.640;2022-07-23T02:16:33;7.47;;;4.68;;
40150;SDS011;25866;52.420;10.640;2022-07-23T02:18:59;5.95;;;4.70;;
40150;SDS011;25866;52.420;10.640;2022-07-23T02:21:24;6.93;;;3.95;;
40150;SDS011;25866;52.420;10.640;2022-07-23T02:23:50;8.63;;;4.60;;
40150;SDS011;25866;52.420;10.640;2022-07-23T02:26:16;4.88;;;3.72;;
40150;SDS011;25866;52.420;10.640;2022-07-23T02:28:41;5.65;;;4.05;;
40150;SDS011;25866;52.420;10.640;2022-07-23T02:31:07;7.15;;;4.30;;
40150;SDS011;25866;52.420;10.640;2022-07-23T02:33:37;6.00;;;4.45;;
40150;SDS011;25866;52.420;10.640;2022-07-23T02:38:38;6.90;;;4.35;;
40150;SDS011;25866;52.420;10.640;2022-07-23T02:41:03;5.43;;;4.70;;
40150;SDS011;25866;52.420;10.640;2022-07-23T02:43:29;5.57;;;4.28;;
40150;SDS011;25866;52.420;10.640;2022-07-23T02:45:55;5.53;;;4.22;;
40150;SDS011;25866;52.420;10.640;2022-07-23T02:48:37;5.38;;;3.90;;
40150;SDS011;25866;52.420;10.640;2022-07-23T02:51:02;6.00;;;4.70;;
40150;SDS011;25866;52.420;10.640;2022-07-23T02:53:28;8.55;;;5.25;;
40150;SDS011;25866;52.420;10.640;2022-07-23T02:55:54;6.97;;;5.38;;
40150;SDS011;25866;52.420;10.640;2022-07-23T03:00:49;6.70;;;5.35;;
40150;SDS011;25866;52.420;10.640;2022-07-23T03:03:15;6.82;;;5.63;;
40150;SDS011;25866;52.420;10.640;2022-07-23T03:05:41;7.07;;;5.05;;
40150;SDS011;25866;52.420;10.640;2022-07-23T03:08:08;7.68;;;5.00;;
40150;SDS011;25866;52.420;10.640;2022-07-23T03:10:33;7.25;;;5.22;;
40150;SDS011;25866;52.420;10.640;2022-07-23T03:12:59;6.03;;;4.65;;
40150;SDS011;25866;52.420;10.640;2022-07-23T03:15:24;7.88;;;5.20;;
40150;SDS011;25866;52.420;10.640;2022-07-23T03:17:50;6.32;;;5.25;;
40150;SDS011;25866;52.420;10.640;2022-07-23T03:20:29;10.18;;;5.18;;
40150;SDS011;25866;52.420;10.640;2022-07-23T03:22:54;5.68;;;4.75;;
40150;SDS011;25866;52.420;10.640;2022-07-23T03:25:20;6.15;;;4.70;;
40150;SDS011;25866;52.420;10.640;2022-07-23T03:27:46;5.47;;;4.85;;
40150;SDS011;25866;52.420;10.640;2022-07-23T03:30:11;5.88;;;4.70;;
40150;SDS011;25866;52.420;10.640;2022-07-23T03:32:37;7.25;;;4.90;;
40150;SDS011;25866;52.420;10.640;2022-07-23T03:35:03;6.82;;;5.38;;
40150;SDS011;25866;52.420;10.640;2022-07-23T03:37:29;6.38;;;4.93;;
40150;SDS011;25866;52.420;10.640;2022-07-23T03:39:56;8.05;;;5.20;;
40150;SDS011;25866;52.420;10.640;2022-07-23T03:42:22;8.23;;;5.82;;
40150;SDS011;25866;52.420;10.640;2022-07-23T03:44:47;6.72;;;5.28;;
40150;SDS011;25866;52.420;10.640;2022-07-23T03:47:13;6.85;;;5.07;;
40150;SDS011;25866;52.420;10.640;2022-07-23T03:49:41;7.90;;;5.47;;
40150;SDS011;25866;52.420;10.640;2022-07-23T03:52:06;7.65;;;5.32;;
40150;SDS011;25866;52.420;10.640;2022-07-23T03:54:32;9.85;;;5.10;;
40150;SDS011;25866;52.420;10.640;2022-07-23T03:56:57;6.30;;;4.90;;
40150;SDS011;25866;52.420;10.640;2022-07-23T03:59:24;9.70;;;5.05;;
40150;SDS011;25866;52.420;10.640;2022-07-23T04:01:50;7.50;;;5.50;;
40150;SDS011;25866;52.420;10.640;2022-07-23T04:04:16;9.45;;;5.28;;
40150;SDS011;25866;52.420;10.640;2022-07-23T04:06:41;9.60;;;5.18;;
40150;SDS011;25866;52.420;10.640;2022-07-23T04:11:53;6.95;;;5.43;;
40150;SDS011;25866;52.420;10.640;2022-07-23T04:14:18;7.40;;;5.85;;
40150;SDS011;25866;52.420;10.640;2022-07-23T04:16:44;6.47;;;4.63;;
40150;SDS011;25866;52.420;10.640;2022-07-23T04:21:56;11.35;;;5.72;;
40150;SDS011;25866;52.420;10.640;2022-07-23T04:24:22;7.05;;;5.25;;
40150;SDS011;25866;52.420;10.640;2022-07-23T04:26:48;8.15;;;5.13;;
40150;SDS011;25866;52.420;10.640;2022-07-23T04:29:13;8.20;;;4.97;;
40150;SDS011;25866;52.420;10.640;2022-07-23T04:31:39;7.15;;;5.00;;
40150;SDS011;25866;52.420;10.640;2022-07-23T04:34:05;9.32;;;4.97;;
40150;SDS011;25866;52.420;10.640;2022-07-23T04:36:30;9.95;;;4.95;;
40150;SDS011;25866;52.420;10.640;2022-07-23T04:38:56;6.28;;;4.82;;
40150;SDS011;25866;52.420;10.640;2022-07-23T04:41:23;7.68;;;5.13;;
40150;SDS011;25866;52.420;10.640;2022-07-23T04:43:48;8.55;;;5.38;;
40150;SDS011;25866;52.420;10.640;2022-07-23T04:46:14;6.65;;;5.35;;
40150;SDS011;25866;52.420;10.640;2022-07-23T04:48:40;10.45;;;5.63;;
40150;SDS011;25866;52.420;10.640;2022-07-23T04:51:14;10.88;;;5.72;;
40150;SDS011;25866;52.420;10.640;2022-07-23T04:53:40;8.32;;;5.63;;
40150;SDS011;25866;52.420;10.640;2022-07-23T04:56:05;7.22;;;5.35;;
40150;SDS011;25866;52.420;10.640;2022-07-23T04:58:31;7.40;;;5.00;;
40150;SDS011;25866;52.420;10.640;2022-07-23T05:01:03;8.98;;;5.45;;
40150;SDS011;25866;52.420;10.640;2022-07-23T05:03:29;7.28;;;4.90;;
40150;SDS011;25866;52.420;10.640;2022-07-23T05:05:55;6.65;;;4.85;;
40150;SDS011;25866;52.420;10.640;2022-07-23T05:08:20;10.18;;;4.95;;
40150;SDS011;25866;52.420;10.640;2022-07-23T05:10:47;8.35;;;5.60;;
40150;SDS011;25866;52.420;10.640;2022-07-23T05:13:16;11.88;;;5.60;;
40150;SDS011;25866;52.420;10.640;2022-07-23T05:15:43;5.85;;;4.78;;
40150;SDS011;25866;52.420;10.640;2022-07-23T05:18:09;6.80;;;5.13;;
40150;SDS011;25866;52.420;10.640;2022-07-23T05:20:38;8.07;;;4.90;;
40150;SDS011;25866;52.420;10.640;2022-07-23T05:23:04;7.82;;;5.05;;
40150;SDS011;25866;52.420;10.640;2022-07-23T05:25:29;7.90;;;5.28;;
40150;SDS011;25866;52.420;10.640;2022-07-23T05:27:55;5.20;;;4.70;;
40150;SDS011;25866;52.420;10.640;2022-07-23T05:30:21;5.72;;;4.95;;
40150;SDS011;25866;52.420;10.640;2022-07-23T05:32:46;7.72;;;6.00;;
40150;SDS011;25866;52.420;10.640;2022-07-23T05:35:12;7.88;;;5.18;;
40150;SDS011;25866;52.420;10.640;2022-07-23T05:37:38;8.07;;;6.05;;
40150;SDS011;25866;52.420;10.640;2022-07-23T05:40:06;7.40;;;5.30;;
40150;SDS011;25866;52.420;10.640;2022-07-23T05:42:33;5.88;;;4.70;;
40150;SDS011;25866;52.420;10.640;2022-07-23T05:45:00;5.97;;;4.75;;
40150;SDS011;25866;52.420;10.640;2022-07-23T05:47:25;7.88;;;5.88;;
40150;SDS011;25866;52.420;10.640;2022-07-23T05:49:51;8.70;;;6.28;;
40150;SDS011;25866;52.420;10.640;2022-07-23T05:52:24;9.05;;;5.20;;
40150;SDS011;25866;52.420;10.640;2022-07-23T05:54:49;6.40;;;5.38;;
40150;SDS011;25866;52.420;10.640;2022-07-23T05:57:15;5.85;;;5.25;;
40150;SDS011;25866;52.420;10.640;2022-07-23T05:59:41;8.32;;;5.30;;
40150;SDS011;25866;52.420;10.640;2022-07-23T06:02:06;6.55;;;4.93;;
40150;SDS011;25866;52.420;10.640;2022-07-23T06:04:32;6.90;;;5.20;;
40150;SDS011;25866;52.420;10.640;2022-07-23T06:06:57;8.90;;;5.90;;
40150;SDS011;25866;52.420;10.640;2022-07-23T06:09:23;8.27;;;5.50;;
40150;SDS011;25866;52.420;10.640;2022-07-23T06:12:00;7.55;;;4.47;;
40150;SDS011;25866;52.420;10.640;2022-07-23T06:14:26;4.97;;;4.47;;
40150;SDS011;25866;52.420;10.640;2022-07-23T06:16:51;5.32;;;4.50;;
40150;SDS011;25866;52.420;10.640;2022-07-23T06:19:17;5.70;;;3.70;;
40150;SDS011;25866;52.420;10.640;2022-07-23T06:21:53;5.43;;;3.92;;
40150;SDS011;25866;52.420;10.640;2022-07-23T06:24:18;7.88;;;4.75;;
40150;SDS011;25866;52.420;10.640;2022-07-23T06:26:44;8.15;;;4.47;;
40150;SDS011;25866;52.420;10.640;2022-07-23T06:29:10;6.43;;;4.05;;
40150;SDS011;25866;52.420;10.640;2022-07-23T06:31:38;9.73;;;4.47;;
40150;SDS011;25866;52.420;10.640;2022-07-23T06:34:03;5.60;;;3.97;;
40150;SDS011;25866;52.420;10.640;2022-07-23T06:36:29;5.50;;;3.90;;
40150;SDS011;25866;52.420;10.640;2022-07-23T06:38:55;6.85;;;3.63;;
40150;SDS011;25866;52.420;10.640;2022-07-23T06:41:27;4.47;;;3.35;;
40150;SDS011;25866;52.420;10.640;2022-07-23T06:43:53;5.70;;;3.78;;
40150;SDS011;25866;52.420;10.640;2022-07-23T06:46:19;3.97;;;3.10;;
40150;SDS011;25866;52.420;10.640;2022-07-23T06:48:46;4.13;;;3.00;;
40150;SDS011;25866;52.420;10.640;2022-07-23T06:51:12;5.82;;;3.20;;
40150;SDS011;25866;52.420;10.640;2022-07-23T06:53:38;5.88;;;2.67;;
40150;SDS011;25866;52.420;10.640;2022-07-23T06:56:04;4.28;;;2.58;;
40150;SDS011;25866;52.420;10.640;2022-07-23T06:58:29;4.13;;;2.78;;
40150;SDS011;25866;52.420;10.640;2022-07-23T07:00:55;7.43;;;3.35;;
40150;SDS011;25866;52.420;10.640;2022-07-23T07:03:35;4.40;;;2.70;;
40150;SDS011;25866;52.420;10.640;2022-07-23T07:06:01;5.50;;;2.95;;
40150;SDS011;25866;52.420;10.640;2022-07-23T07:08:27;6.72;;;3.15;;
40150;SDS011;25866;52.420;10.640;2022-07-23T07:10:53;7.32;;;2.90;;
40150;SDS011;25866;52.420;10.640;2022-07-23T07:13:26;3.25;;;2.28;;
40150;SDS011;25866;52.420;10.640;2022-07-23T07:15:52;5.32;;;2.60;;
40150;SDS011;25866;52.420;10.640;2022-07-23T07:18:18;3.75;;;2.65;;
40150;SDS011;25866;52.420;10.640;2022-07-23T07:20:43;3.70;;;2.50;;
40150;SDS011;25866;52.420;10.640;2022-07-23T07:23:24;4.30;;;2.97;;
40150;SDS011;25866;52.420;10.640;2022-07-23T07:25:50;5.00;;;2.47;;
40150;SDS011;25866;52.420;10.640;2022-07-23T07:28:16;4.45;;;3.00;;
40150;SDS011;25866;52.420;10.640;2022-07-23T07:30:41;4.68;;;2.92;;
40150;SDS011;25866;52.420;10.640;2022-07-23T07:33:13;6.32;;;3.25;;
40150;SDS011;25866;52.420;10.640;2022-07-23T07:35:54;7.70;;;2.97;;
40150;SDS011;25866;52.420;10.640;2022-07-23T07:38:20;5.88;;;3.08;;
40150;SDS011;25866;52.420;10.640;2022-07-23T07:40:46;4.57;;;2.60;;
40150;SDS011;25866;52.420;10.640;2022-07-23T07:43:17;7.20;;;3.20;;
40150;SDS011;25866;52.420;10.640;2022-07-23T07:45:43;8.98;;;3.08;;
40150;SDS011;25866;52.420;10.640;2022-07-23T07:48:09;6.00;;;3.65;;
40150;SDS011;25866;52.420;10.640;2022-07-23T07:50:34;5.20;;;2.38;;
40150;SDS011;25866;52.420;10.640;2022-07-23T07:55:30;3.90;;;2.00;;
40150;SDS011;25866;52.420;10.640;2022-07-23T07:57:56;2.90;;;1.98;;
40150;SDS011;25866;52.420;10.640;2022-07-23T08:00:22;4.30;;;2.00;;
40150;SDS011;25866;52.420;10.640;2022-07-23T08:02:55;5.35;;;2.00;;
40150;SDS011;25866;52.420;10.640;2022-07-23T08:05:21;4.18;;;2.38;;
40150;SDS011;25866;52.420;10.640;2022-07-23T08:07:48;4.32;;;2.00;;
40150;SDS011;25866;52.420;10.640;2022-07-23T08:10:14;5.85;;;2.05;;
40150;SDS011;25866;52.420;10.640;2022-07-23T08:12:50;4.30;;;1.80;;
40150;SDS011;25866;52.420;10.640;2022-07-23T08:17:53;3.80;;;1.67;;
40150;SDS011;25866;52.420;10.640;2022-07-23T08:20:21;5.55;;;2.05;;
40150;SDS011;25866;52.420;10.640;2022-07-23T08:22:53;2.45;;;1.30;;
40150;SDS011;25866;52.420;10.640;2022-07-23T08:25:24;2.67;;;1.50;;
40150;SDS011;25866;52.420;10.640;2022-07-23T08:27:50;4.00;;;1.60;;
40150;SDS011;25866;52.420;10.640;2022-07-23T08:30:16;2.33;;;1.42;;
40150;SDS011;25866;52.420;10.640;2022-07-23T08:35:35;3.42;;;1.48;;
40150;SDS011;25866;52.420;10.640;2022-07-23T08:38:03;3.33;;;1.40;;
40150;SDS011;25866;52.420;10.640;2022-07-23T08:40:31;4.20;;;1.38;;
40150;SDS011;25866;52.420;10.640;2022-07-23T08:42:59;3.60;;;1.52;;
40150;SDS011;25866;52.420;10.640;2022-07-23T08:45:28;3.83;;;1.48;;
40150;SDS011;25866;52.420;10.640;2022-07-23T08:47:55;2.75;;;1.15;;
40150;SDS011;25866;52.420;10.640;2022-07-23T08:50:25;3.20;;;1.40;;
40150;SDS011;25866;52.420;10.640;2022-07-23T08:52:52;1.65;;;1.20;;
40150;SDS011;25866;52.420;10.640;2022-07-23T08:55:32;2.60;;;1.20;;
40150;SDS011;25866;52.420;10.640;2022-07-23T08:57:59;1.92;;;1.42;;
40150;SDS011;25866;52.420;10.640;2022-07-23T09:00:24;3.60;;;1.20;;
40150;SDS011;25866;52.420;10.640;2022-07-23T09:02:50;3.35;;;1.35;;
40150;SDS011;25866;52.420;10.640;2022-07-23T09:05:34;3.72;;;1.35;;
40150;SDS011;25866;52.420;10.640;2022-07-23T09:08:07;2.13;;;1.20;;
40150;SDS011;25866;52.420;10.640;2022-07-23T09:10:44;1.95;;;0.98;;
40150;SDS011;25866;52.420;10.640;2022-07-23T09:13:31;3.78;;;1.50;;
40150;SDS011;25866;52.420;10.640;2022-07-23T09:18:42;1.80;;;1.00;;
40150;SDS011;25866;52.420;10.640;2022-07-23T09:21:19;2.58;;;1.15;;
40150;SDS011;25866;52.420;10.640;2022-07-23T09:24:10;3.20;;;1.20;;
40150;SDS011;25866;52.420;10.640;2022-07-23T09:29:21;3.75;;;0.98;;
40150;SDS011;25866;52.420;10.640;2022-07-23T09:31:53;2.22;;;1.08;;
40150;SDS011;25866;52.420;10.640;2022-07-23T09:34:23;3.22;;;1.00;;
40150;SDS011;25866;52.420;10.640;2022-07-23T09:36:57;2.08;;;0.93;;
40150;SDS011;25866;52.420;10.640;2022-07-23T09:39:33;2.75;;;0.85;;
40150;SDS011;25866;52.420;10.640;2022-07-23T09:42:21;1.45;;;0.70;;
40150;SDS011;25866;52.420;10.640;2022-07-23T09:44:57;1.13;;;0.80;;
40150;SDS011;25866;52.420;10.640;2022-07-23T09:47:24;1.58;;;0.90;;
40150;SDS011;25866;52.420;10.640;2022-07-23T09:50:01;1.50;;;0.90;;
40150;SDS011;25866;52.420;10.640;2022-07-23T09:52:34;1.95;;;0.88;;
40150;SDS011;25866;52.420;10.640;2022-07-23T09:55:19;1.50;;;0.90;;
40150;SDS011;25866;52.420;10.640;2022-07-23T09:57:55;3.95;;;1.10;;
40150;SDS011;25866;52.420;10.640;2022-07-23T10:00:21;1.60;;;0.85;;
40150;SDS011;25866;52.420;10.640;2022-07-23T10:02:48;1.67;;;0.73;;
40150;SDS011;25866;52.420;10.640;2022-07-23T10:05:16;2.05;;;1.08;;
40150;SDS011;25866;52.420;10.640;2022-07-23T10:07:42;2.03;;;1.00;;
40150;SDS011;25866;52.420;10.640;2022-07-23T10:10:08;2.22;;;0.80;;
40150;SDS011;25866;52.420;10.640;2022-07-23T10:12:36;1.48;;;0.65;;
40150;SDS011;25866;52.420;10.640;2022-07-23T10:15:03;4.47;;;0.98;;
40150;SDS011;25866;52.420;10.640;2022-07-23T10:17:31;3.42;;;1.00;;
40150;SDS011;25866;52.420;10.640;2022-07-23T10:19:57;1.15;;;0.75;;
40150;SDS011;25866;52.420;10.640;2022-07-23T10:22:24;1.85;;;0.90;;
40150;SDS011;25866;52.420;10.640;2022-07-23T10:30:43;2.83;;;0.98;;
40150;SDS011;25866;52.420;10.640;2022-07-23T10:33:27;2.80;;;0.95;;
40150;SDS011;25866;52.420;10.640;2022-07-23T10:39:13;2.28;;;0.82;;
40150;SDS011;25866;52.420;10.640;2022-07-23T10:44:40;2.20;;;1.00;;
40150;SDS011;25866;52.420;10.640;2022-07-23T10:47:09;2.00;;;1.10;;
40150;SDS011;25866;52.420;10.640;2022-07-23T10:49:47;0.80;;;0.80;;
40150;SDS011;25866;52.420;10.640;2022-07-23T10:57:16;1.55;;;0.85;;
40150;SDS011;25866;52.420;10.640;2022-07-23T11:02:33;1.65;;;0.82;;
40150;SDS011;25866;52.420;10.640;2022-07-23T11:05:04;1.83;;;0.90;;
40150;SDS011;25866;52.420;10.640;2022-07-23T11:10:45;2.55;;;1.02;;
40150;SDS011;25866;52.420;10.640;2022-07-23T11:34:39;3.67;;;1.00;;
40150;SDS011;25866;52.420;10.640;2022-07-23T11:37:07;2.28;;;0.80;;
40150;SDS011;25866;52.420;10.640;2022-07-23T11:39:37;4.05;;;1.05;;
40150;SDS011;25866;52.420;10.640;2022-07-23T11:42:04;1.00;;;0.57;;
40150;SDS011;25866;52.420;10.640;2022-07-23T11:44:36;1.73;;;0.63;;
40150;SDS011;25866;52.420;10.640;2022-07-23T11:49:56;0.68;;;0.60;;
40150;SDS011;25866;52.420;10.640;2022-07-23T11:52:23;1.95;;;0.80;;
40150;SDS011;25866;52.420;10.640;2022-07-23T11:57:29;2.55;;;1.00;;
40150;SDS011;25866;52.420;10.640;2022-07-23T11:59:57;3.20;;;0.90;;
40150;SDS011;25866;52.420;10.640;2022-07-23T12:02:31;2.25;;;1.00;;
40150;SDS011;25866;52.420;10.640;2022-07-23T12:04:57;4.25;;;1.08;;
40150;SDS011;25866;52.420;10.640;2022-07-23T12:10:03;0.90;;;0.60;;
40150;SDS011;25866;52.420;10.640;2022-07-23T12:12:35;2.08;;;0.93;;
40150;SDS011;25866;52.420;10.640;2022-07-23T12:15:03;1.08;;;0.60;;
40150;SDS011;25866;52.420;10.640;2022-07-23T12:17:34;1.85;;;0.77;;
40150;SDS011;25866;52.420;10.640;2022-07-23T12:20:03;1.13;;;0.68;;
40150;SDS011;25866;52.420;10.640;2022-07-23T12:22:47;1.33;;;0.60;;
40150;SDS011;25866;52.420;10.640;2022-07-23T12:25:18;2.33;;;0.85;;
40150;SDS011;25866;52.420;10.640;2022-07-23T12:27:46;2.50;;;0.80;;
40150;SDS011;25866;52.420;10.640;2022-07-23T12:30:23;2.05;;;0.85;;
40150;SDS011;25866;52.420;10.640;2022-07-23T12:32:52;1.17;;;0.65;;
40150;SDS011;25866;52.420;10.640;2022-07-23T12:35:19;1.52;;;0.70;;
40150;SDS011;25866;52.420;10.640;2022-07-23T12:37:47;3.35;;;0.70;;
40150;SDS011;25866;52.420;10.640;2022-07-23T12:40:21;1.17;;;0.68;;
40150;SDS011;25866;52.420;10.640;2022-07-23T12:42:49;1.88;;;0.60;;
40150;SDS011;25866;52.420;10.640;2022-07-23T12:45:20;4.60;;;0.85;;
40150;SDS011;25866;52.420;10.640;2022-07-23T12:53:09;1.92;;;0.80;;
40150;SDS011;25866;52.420;10.640;2022-07-23T12:55:47;1.20;;;0.60;;
40150;SDS011;25866;52.420;10.640;2022-07-23T12:58:15;1.92;;;0.52;;
40150;SDS011;25866;52.420;10.640;2022-07-23T13:03:22;1.33;;;0.65;;
40150;SDS011;25866;52.420;10.640;2022-07-23T13:05:49;1.35;;;0.82;;
40150;SDS011;25866;52.420;10.640;2022-07-23T13:08:23;1.25;;;0.63;;
40150;SDS011;25866;52.420;10.640;2022-07-23T13:10:50;2.63;;;0.65;;
40150;SDS011;25866;52.420;10.640;2022-07-23T13:13:17;3.63;;;0.70;;
40150;SDS011;25866;52.420;10.640;2022-07-23T13:15:46;4.18;;;0.68;;
40150;SDS011;25866;52.420;10.640;2022-07-23T13:18:12;1.05;;;0.70;;
40150;SDS011;25866;52.420;10.640;2022-07-23T13:20:37;1.25;;;0.80;;
40150;SDS011;25866;52.420;10.640;2022-07-23T13:23:07;2.03;;;0.90;;
40150;SDS011;25866;52.420;10.640;2022-07-23T13:25:33;2.97;;;0.63;;
40150;SDS011;25866;52.420;10.640;2022-07-23T13:28:00;2.53;;;0.65;;
40150;SDS011;25866;52.420;10.640;2022-07-23T13:30:26;4.13;;;0.90;;
40150;SDS011;25866;52.420;10.640;2022-07-23T13:32:52;1.73;;;0.77;;
40150;SDS011;25866;52.420;10.640;2022-07-23T13:35:18;1.08;;;0.65;;
40150;SDS011;25866;52.420;10.640;2022-07-23T13:37:44;0.98;;;0.50;;
40150;SDS011;25866;52.420;10.640;2022-07-23T13:40:10;1.63;;;0.52;;
40150;SDS011;25866;52.420;10.640;2022-07-23T13:42:37;1.20;;;0.43;;
40150;SDS011;25866;52.420;10.640;2022-07-23T13:45:03;1.00;;;0.60;;
40150;SDS011;25866;52.420;10.640;2022-07-23T13:47:29;2.55;;;0.55;;
40150;SDS011;25866;52.420;10.640;2022-07-23T13:49:56;1.00;;;0.50;;
40150;SDS011;25866;52.420;10.640;2022-07-23T13:52:22;1.02;;;0.45;;
40150;SDS011;25866;52.420;10.640;2022-07-23T13:54:48;5.32;;;0.73;;
40150;SDS011;25866;52.420;10.640;2022-07-23T13:57:13;2.22;;;0.85;;
40150;SDS011;25866;52.420;10.640;2022-07-23T13:59:39;0.70;;;0.50;;
40150;SDS011;25866;52.420;10.640;2022-07-23T14:02:05;2.50;;;0.55;;
40150;SDS011;25866;52.420;10.640;2022-07-23T14:04:31;1.75;;;0.63;;
40150;SDS011;25866;52.420;10.640;2022-07-23T14:06:57;2.95;;;0.60;;
40150;SDS011;25866;52.420;10.640;2022-07-23T14:09:29;1.20;;;0.50;;
40150;SDS011;25866;52.420;10.640;2022-07-23T14:11:58;1.33;;;0.52;;
40150;SDS011;25866;52.420;10.640;2022-07-23T14:14:24;0.85;;;0.40;;
40150;SDS011;25866;52.420;10.640;2022-07-23T14:16:50;2.38;;;0.90;;
40150;SDS011;25866;52.420;10.640;2022-07-23T14:21:53;2.47;;;0.60;;
40150;SDS011;25866;52.420;10.640;2022-07-23T14:24:19;0.85;;;0.50;;
40150;SDS011;25866;52.420;10.640;2022-07-23T14:26:44;1.85;;;0.70;;
40150;SDS011;25866;52.420;10.640;2022-07-23T14:29:13;2.20;;;0.50;;
40150;SDS011;25866;52.420;10.640;2022-07-23T14:31:39;1.60;;;0.57;;
40150;SDS011;25866;52.420;10.640;2022-07-23T14:34:04;1.90;;;0.40;;
40150;SDS011;25866;52.420;10.640;2022-07-23T14:36:30;1.85;;;0.40;;
40150;SDS011;25866;52.420;10.640;2022-07-23T14:38:59;0.65;;;0.35;;
40150;SDS011;25866;52.420;10.640;2022-07-23T14:41:25;1.77;;;0.60;;
40150;SDS011;25866;52.420;10.640;2022-07-23T14:43:51;1.90;;;0.50;;
40150;SDS011;25866;52.420;10.640;2022-07-23T14:46:16;1.00;;;0.40;;
40150;SDS011;25866;52.420;10.640;2022-07-23T14:48:42;1.35;;;0.52;;
40150;SDS011;25866;52.420;10.640;2022-07-23T14:51:08;0.82;;;0.55;;
40150;SDS011;25866;52.420;10.640;2022-07-23T14:53:33;1.15;;;0.50;;
40150;SDS011;25866;52.420;10.640;2022-07-23T14:55:59;0.70;;;0.50;;
40150;SDS011;25866;52.420;10.640;2022-07-23T14:58:25;0.60;;;0.40;;
40150;SDS011;25866;52.420;10.640;2022-07-23T15:00:55;1.05;;;0.50;;
40150;SDS011;25866;52.420;10.640;2022-07-23T15:03:20;0.70;;;0.40;;
40150;SDS011;25866;52.420;10.640;2022-07-23T15:05:46;1.35;;;0.55;;
40150;SDS011;25866;52.420;10.640;2022-07-23T15:08:12;0.73;;;0.40;;
40150;SDS011;25866;52.420;10.640;2022-07-23T15:10:40;2.90;;;0.60;;
40150;SDS011;25866;52.420;10.640;2022-07-23T15:13:05;1.05;;;0.57;;
40150;SDS011;25866;52.420;10.640;2022-07-23T15:15:31;1.45;;;0.52;;
40150;SDS011;25866;52.420;10.640;2022-07-23T15:17:57;2.28;;;0.52;;
40150;SDS011;25866;52.420;10.640;2022-07-23T15:20:22;2.95;;;0.60;;
40150;SDS011;25866;52.420;10.640;2022-07-23T15:22:48;2.08;;;0.77;;
40150;SDS011;25866;52.420;10.640;2022-07-23T15:25:13;0.98;;;0.57;;
40150;SDS011;25866;52.420;10.640;2022-07-23T15:27:39;3.65;;;0.65;;
40150;SDS011;25866;52.420;10.640;2022-07-23T15:30:15;3.72;;;0.70;;
40150;SDS011;25866;52.420;10.640;2022-07-23T15:32:41;1.02;;;0.50;;
40150;SDS011;25866;52.420;10.640;2022-07-23T15:35:07;1.50;;;0.60;;
40150;SDS011;25866;52.420;10.640;2022-07-23T15:37:33;1.60;;;0.60;;
40150;SDS011;25866;52.420;10.640;2022-07-23T15:39:59;1.60;;;0.63;;
40150;SDS011;25866;52.420;10.640;2022-07-23T15:42:25;4.15;;;0.70;;
40150;SDS011;25866;52.420;10.640;2022-07-23T15:44:51;2.28;;;0.60;;
40150;SDS011;25866;52.420;10.640;2022-07-23T15:47:17;7.97;;;0.93;;
40150;SDS011;25866;52.420;10.640;2022-07-23T15:49:44;3.83;;;0.60;;
40150;SDS011;25866;52.420;10.640;2022-07-23T15:52:15;1.60;;;0.40;;
40150;SDS011;25866;52.420;10.640;2022-07-23T15:54:40;2.42;;;0.50;;
40150;SDS011;25866;52.420;10.640;2022-07-23T15:57:07;0.88;;;0.40;;
40150;SDS011;25866;52.420;10.640;2022-07-23T15:59:33;1.60;;;0.55;;
40150;SDS011;25866;52.420;10.640;2022-07-23T16:02:03;1.10;;;0.60;;
40150;SDS011;25866;52.420;10.640;2022-07-23T16:04:29;1.25;;;0.50;;
40150;SDS011;25866;52.420;10.640;2022-07-23T16:06:56;1.25;;;0.63;;
40150;SDS011;25866;52.420;10.640;2022-07-23T16:09:22;2.80;;;0.50;;